sensor_id;sensor_type;location;lat;lon;timestamp;pressure;altitude;pressure_sealevel;temperature;humidity
20043;BME280;10182;52.896;6.496;2024-01-06T00:02:47;100286.44;;;1.82;100.00
20043;BME280;10182;52.896;6.496;2024-01-06T00:07:48;100290.94;;;1.74;100.00
20043;BME280;10182;52.896;6.496;2024-01-06T00:12:52;100298.66;;;1.82;100.00
20043;BME280;10182;52.896;6.496;2024-01-06T00:17:53;100308.09;;;1.89;100.00
20043;BME280;10182;52.896;6.496;2024-01-06T00:22:55;100310.81;;;1.83;100.00
20043;BME280;10182;52.896;6.496;2024-01-06T00:28:00;100329.22;;;1.77;100.00
20043;BME280;10182;52.896;6.496;2024-01-06T00:33:02;100342.13;;;1.86;100.00
20043;BME280;10182;52.896;6.496;2024-01-06T00:38:04;100345.69;;;1.82;100.00
20043;BME280;10182;52.896;6.496;2024-01-06T00:43:07;100344.81;;;1.80;100.00
20043;BME280;10182;52.896;6.496;2024-01-06T00:48:09;100354.69;;;1.62;100.00
20043;BME280;10182;52.896;6.496;2024-01-06T00:53:13;100355.50;;;1.66;100.00
20043;BME280;10182;52.896;6.496;2024-01-06T00:58:17;100354.88;;;1.50;100.00
20043;BME280;10182;52.896;6.496;2024-01-06T01:03:18;100367.00;;;1.54;100.00
20043;BME280;10182;52.896;6.496;2024-01-06T01:08:20;100373.03;;;1.58;100.00
20043;BME280;10182;52.896;6.496;2024-01-06T01:13:32;100374.81;;;1.54;100.00
20043;BME280;10182;52.896;6.496;2024-01-06T01:18:34;100381.00;;;1.48;100.00
20043;BME280;10182;52.896;6.496;2024-01-06T01:23:35;100385.41;;;1.46;100.00
20043;BME280;10182;52.896;6.496;2024-01-06T01:28:38;100397.78;;;1.32;100.00
20043;BME280;10182;52.896;6.496;2024-01-06T01:33:40;100402.75;;;1.50;100.00
20043;BME280;10182;52.896;6.496;2024-01-06T01:38:42;100415.91;;;1.41;100.00
20043;BME280;10182;52.896;6.496;2024-01-06T01:43:45;100416.78;;;1.42;100.00
20043;BME280;10182;52.896;6.496;2024-01-06T01:48:47;100413.38;;;1.38;100.00
20043;BME280;10182;52.896;6.496;2024-01-06T01:53:49;100421.41;;;1.21;100.00
20043;BME280;10182;52.896;6.496;2024-01-06T01:58:53;100426.66;;;1.18;100.00
20043;BME280;10182;52.896;6.496;2024-01-06T02:03:55;100429.25;;;1.20;100.00
20043;BME280;10182;52.896;6.496;2024-01-06T02:08:56;100439.00;;;1.05;100.00
20043;BME280;10182;52.896;6.496;2024-01-06T02:14:00;100437.13;;;1.16;100.00
20043;BME280;10182;52.896;6.496;2024-01-06T02:19:05;100445.91;;;1.09;100.00
20043;BME280;10182;52.896;6.496;2024-01-06T02:24:09;100451.31;;;0.94;100.00
20043;BME280;10182;52.896;6.496;2024-01-06T02:29:11;100455.53;;;1.06;100.00
20043;BME280;10182;52.896;6.496;2024-01-06T02:34:13;100457.25;;;1.07;100.00
20043;BME280;10182;52.896;6.496;2024-01-06T02:39:16;100459.06;;;0.98;100.00
20043;BME280;10182;52.896;6.496;2024-01-06T02:44:19;100463.41;;;0.99;100.00
20043;BME280;10182;52.896;6.496;2024-01-06T02:49:20;100479.84;;;1.08;100.00
20043;BME280;10182;52.896;6.496;2024-01-06T02:54:23;100473.69;;;1.12;100.00
20043;BME280;10182;52.896;6.496;2024-01-06T02:59:25;100491.19;;;1.07;100.00
20043;BME280;10182;52.896;6.496;2024-01-06T03:04:28;100506.84;;;1.04;100.00
20043;BME280;10182;52.896;6.496;2024-01-06T03:09:31;100509.50;;;1.00;100.00
20043;BME280;10182;52.896;6.496;2024-01-06T03:14:33;100514.69;;;1.02;100.00
20043;BME280;10182;52.896;6.496;2024-01-06T03:19:36;100518.31;;;0.89;100.00
20043;BME280;10182;52.896;6.496;2024-01-06T03:24:39;100516.59;;;0.88;100.00
20043;BME280;10182;52.896;6.496;2024-01-06T03:29:41;100519.19;;;0.86;100.00
20043;BME280;10182;52.896;6.496;2024-01-06T03:34:43;100517.56;;;0.76;100.00
20043;BME280;10182;52.896;6.496;2024-01-06T03:39:46;100525.41;;;0.76;100.00
20043;BME280;10182;52.896;6.496;2024-01-06T03:44:47;100540.91;;;0.88;100.00
20043;BME280;10182;52.896;6.496;2024-01-06T03:49:49;100552.28;;;0.81;100.00
20043;BME280;10182;52.896;6.496;2024-01-06T03:54:52;100565.31;;;0.82;100.00
20043;BME280;10182;52.896;6.496;2024-01-06T03:59:57;100573.16;;;0.81;100.00
20043;BME280;10182;52.896;6.496;2024-01-06T04:04:59;100585.34;;;0.79;100.00
20043;BME280;10182;52.896;6.496;2024-01-06T04:10:02;100592.22;;;0.84;100.00
20043;BME280;10182;52.896;6.496;2024-01-06T04:15:04;100594.09;;;0.72;100.00
20043;BME280;10182;52.896;6.496;2024-01-06T04:20:08;100594.13;;;0.65;100.00
20043;BME280;10182;52.896;6.496;2024-01-06T04:25:14;100600.25;;;0.61;100.00
20043;BME280;10182;52.896;6.496;2024-01-06T04:30:16;100607.25;;;0.58;100.00
20043;BME280;10182;52.896;6.496;2024-01-06T04:35:20;100618.56;;;0.54;100.00
20043;BME280;10182;52.896;6.496;2024-01-06T04:40:23;100620.28;;;0.59;100.00
20043;BME280;10182;52.896;6.496;2024-01-06T04:45:25;100622.00;;;0.57;100.00
20043;BME280;10182;52.896;6.496;2024-01-06T04:50:26;100624.63;;;0.56;100.00
20043;BME280;10182;52.896;6.496;2024-01-06T04:55:29;100632.50;;;0.49;100.00
20043;BME280;10182;52.896;6.496;2024-01-06T05:00:31;100633.31;;;0.59;100.00
20043;BME280;10182;52.896;6.496;2024-01-06T05:05:33;100638.50;;;0.59;100.00
20043;BME280;10182;52.896;6.496;2024-01-06T05:10:36;100644.63;;;0.55;100.00
20043;BME280;10182;52.896;6.496;2024-01-06T05:15:37;100655.91;;;0.57;100.00
20043;BME280;10182;52.896;6.496;2024-01-06T05:20:39;100661.22;;;0.42;100.00
20043;BME280;10182;52.896;6.496;2024-01-06T05:25:42;100667.28;;;0.45;100.00
20043;BME280;10182;52.896;6.496;2024-01-06T05:30:44;100677.69;;;0.47;100.00
20043;BME280;10182;52.896;6.496;2024-01-06T05:35:46;100689.84;;;0.49;100.00
20043;BME280;10182;52.896;6.496;2024-01-06T05:40:49;100696.91;;;0.27;100.00
20043;BME280;10182;52.896;6.496;2024-01-06T05:45:51;100698.63;;;0.33;100.00
20043;BME280;10182;52.896;6.496;2024-01-06T05:50:52;100720.34;;;0.33;100.00
20043;BME280;10182;52.896;6.496;2024-01-06T06:02:13;100728.94;;;0.49;100.00
20043;BME280;10182;52.896;6.496;2024-01-06T06:07:14;100734.13;;;0.56;100.00
20043;BME280;10182;52.896;6.496;2024-01-06T06:12:16;100743.69;;;0.55;100.00
20043;BME280;10182;52.896;6.496;2024-01-06T06:17:19;100757.63;;;0.45;100.00
20043;BME280;10182;52.896;6.496;2024-01-06T06:22:21;100762.84;;;0.43;100.00
20043;BME280;10182;52.896;6.496;2024-01-06T06:27:27;100770.66;;;0.45;100.00
20043;BME280;10182;52.896;6.496;2024-01-06T06:32:30;100780.22;;;0.52;100.00
20043;BME280;10182;52.896;6.496;2024-01-06T06:37:31;100781.16;;;0.36;100.00
20043;BME280;10182;52.896;6.496;2024-01-06T06:42:33;100795.00;;;0.47;100.00
20043;BME280;10182;52.896;6.496;2024-01-06T06:47:36;100810.66;;;0.44;100.00
20043;BME280;10182;52.896;6.496;2024-01-06T06:52:38;100815.84;;;0.42;100.00
20043;BME280;10182;52.896;6.496;2024-01-06T06:57:39;100822.81;;;0.43;100.00
20043;BME280;10182;52.896;6.496;2024-01-06T07:02:47;100824.53;;;0.44;100.00
20043;BME280;10182;52.896;6.496;2024-01-06T07:07:49;100837.53;;;0.50;100.00
20043;BME280;10182;52.896;6.496;2024-01-06T07:12:51;100851.44;;;0.54;100.00
20043;BME280;10182;52.896;6.496;2024-01-06T07:17:54;100866.22;;;0.50;100.00
20043;BME280;10182;52.896;6.496;2024-01-06T07:22:56;100865.31;;;0.55;100.00
20043;BME280;10182;52.896;6.496;2024-01-06T07:27:58;100871.41;;;0.64;100.00
20043;BME280;10182;52.896;6.496;2024-01-06T07:33:01;100877.50;;;0.60;100.00
20043;BME280;10182;52.896;6.496;2024-01-06T07:38:05;100886.16;;;0.62;100.00
20043;BME280;10182;52.896;6.496;2024-01-06T07:43:07;100881.84;;;0.64;100.00
20043;BME280;10182;52.896;6.496;2024-01-06T07:48:10;100889.66;;;0.58;100.00
20043;BME280;10182;52.896;6.496;2024-01-06T07:53:12;100894.88;;;0.66;100.00
20043;BME280;10182;52.896;6.496;2024-01-06T07:58:14;100905.28;;;0.61;100.00
20043;BME280;10182;52.896;6.496;2024-01-06T08:03:18;100904.41;;;0.69;100.00
20043;BME280;10182;52.896;6.496;2024-01-06T08:08:19;100917.47;;;0.58;100.00
20043;BME280;10182;52.896;6.496;2024-01-06T08:13:21;100928.78;;;0.54;100.00
20043;BME280;10182;52.896;6.496;2024-01-06T08:18:24;100934.00;;;0.50;100.00
20043;BME280;10182;52.896;6.496;2024-01-06T08:23:26;100941.81;;;0.64;100.00
20043;BME280;10182;52.896;6.496;2024-01-06T08:28:27;100957.44;;;0.60;100.00
20043;BME280;10182;52.896;6.496;2024-01-06T08:33:30;100964.41;;;0.61;100.00
20043;BME280;10182;52.896;6.496;2024-01-06T08:38:32;100975.69;;;0.69;100.00
20043;BME280;10182;52.896;6.496;2024-01-06T08:43:34;100981.75;;;0.76;100.00
20043;BME280;10182;52.896;6.496;2024-01-06T08:48:37;100980.06;;;0.58;100.00
20043;BME280;10182;52.896;6.496;2024-01-06T08:53:38;100978.25;;;0.74;100.00
20043;BME280;10182;52.896;6.496;2024-01-06T08:58:40;100984.34;;;0.83;100.00
20043;BME280;10182;52.896;6.496;2024-01-06T09:03:43;100988.69;;;0.83;100.00
20043;BME280;10182;52.896;6.496;2024-01-06T09:08:45;101012.16;;;0.81;100.00
20043;BME280;10182;52.896;6.496;2024-01-06T09:13:47;101009.53;;;0.91;100.00
20043;BME280;10182;52.896;6.496;2024-01-06T09:18:50;101016.50;;;0.84;100.00
20043;BME280;10182;52.896;6.496;2024-01-06T09:23:52;101017.38;;;0.83;100.00
20043;BME280;10182;52.896;6.496;2024-01-06T09:28:53;101011.28;;;0.84;100.00
20043;BME280;10182;52.896;6.496;2024-01-06T09:34:00;101028.66;;;0.97;100.00
20043;BME280;10182;52.896;6.496;2024-01-06T09:39:02;101025.16;;;0.98;100.00
20043;BME280;10182;52.896;6.496;2024-01-06T09:44:08;101043.44;;;0.91;100.00
20043;BME280;10182;52.896;6.496;2024-01-06T09:49:16;101052.09;;;1.04;100.00
20043;BME280;10182;52.896;6.496;2024-01-06T09:54:22;101062.56;;;1.08;100.00
20043;BME280;10182;52.896;6.496;2024-01-06T09:59:24;101062.56;;;1.02;100.00
20043;BME280;10182;52.896;6.496;2024-01-06T10:04:30;101067.78;;;0.99;100.00
20043;BME280;10182;52.896;6.496;2024-01-06T10:09:33;101064.28;;;1.06;100.00
20043;BME280;10182;52.896;6.496;2024-01-06T10:14:34;101071.28;;;0.93;100.00
20043;BME280;10182;52.896;6.496;2024-01-06T10:19:37;101079.97;;;0.92;100.00
20043;BME280;10182;52.896;6.496;2024-01-06T10:24:40;101088.66;;;0.93;100.00
20043;BME280;10182;52.896;6.496;2024-01-06T10:29:41;101088.66;;;0.94;100.00
20043;BME280;10182;52.896;6.496;2024-01-06T10:34:45;101085.19;;;0.89;100.00
20043;BME280;10182;52.896;6.496;2024-01-06T10:40:08;101095.63;;;0.92;100.00
20043;BME280;10182;52.896;6.496;2024-01-06T10:45:11;101097.34;;;0.78;100.00
20043;BME280;10182;52.896;6.496;2024-01-06T10:50:17;101093.88;;;0.88;100.00
20043;BME280;10182;52.896;6.496;2024-01-06T10:55:19;101103.44;;;0.94;100.00
20043;BME280;10182;52.896;6.496;2024-01-06T11:00:24;101119.09;;;0.89;100.00
20043;BME280;10182;52.896;6.496;2024-01-06T11:05:28;101107.81;;;0.81;100.00
20043;BME280;10182;52.896;6.496;2024-01-06T11:10:32;101115.59;;;0.90;100.00
20043;BME280;10182;52.896;6.496;2024-01-06T11:15:41;101122.56;;;0.97;100.00
20043;BME280;10182;52.896;6.496;2024-01-06T11:26:31;101122.56;;;0.97;100.00
20043;BME280;10182;52.896;6.496;2024-01-06T11:31:33;101120.84;;;0.86;100.00
20043;BME280;10182;52.896;6.496;2024-01-06T11:36:36;101130.41;;;0.76;100.00
20043;BME280;10182;52.896;6.496;2024-01-06T11:41:51;101136.50;;;0.93;100.00
20043;BME280;10182;52.896;6.496;2024-01-06T11:46:56;101129.53;;;1.00;100.00
20043;BME280;10182;52.896;6.496;2024-01-06T11:51:58;101137.34;;;0.98;100.00
20043;BME280;10182;52.896;6.496;2024-01-06T11:57:01;101135.59;;;0.93;100.00
20043;BME280;10182;52.896;6.496;2024-01-06T12:02:05;101132.13;;;0.98;100.00
20043;BME280;10182;52.896;6.496;2024-01-06T12:07:08;101139.09;;;1.09;100.00
20043;BME280;10182;52.896;6.496;2024-01-06T12:12:16;101141.69;;;0.99;100.00
20043;BME280;10182;52.896;6.496;2024-01-06T12:17:30;101146.91;;;0.99;100.00
20043;BME280;10182;52.896;6.496;2024-01-06T12:22:34;101148.66;;;0.90;100.00
20043;BME280;10182;52.896;6.496;2024-01-06T12:27:41;101141.69;;;0.96;100.00
20043;BME280;10182;52.896;6.496;2024-01-06T12:32:44;101150.41;;;0.92;100.00
20043;BME280;10182;52.896;6.496;2024-01-06T12:37:46;101156.47;;;0.82;100.00
20043;BME280;10182;52.896;6.496;2024-01-06T12:42:49;101162.59;;;0.92;100.00
20043;BME280;10182;52.896;6.496;2024-01-06T12:47:51;101163.47;;;0.88;100.00
20043;BME280;10182;52.896;6.496;2024-01-06T12:52:52;101165.16;;;0.89;100.00
20043;BME280;10182;52.896;6.496;2024-01-06T12:57:55;101160.81;;;0.86;100.00
20043;BME280;10182;52.896;6.496;2024-01-06T13:02:57;101174.75;;;0.88;100.00
20043;BME280;10182;52.896;6.496;2024-01-06T13:08:01;101170.38;;;0.76;100.00
20043;BME280;10182;52.896;6.496;2024-01-06T13:13:06;101173.88;;;0.78;100.00
20043;BME280;10182;52.896;6.496;2024-01-06T13:18:07;101179.09;;;0.88;100.00
20043;BME280;10182;52.896;6.496;2024-01-06T13:23:10;101190.38;;;0.82;100.00
20043;BME280;10182;52.896;6.496;2024-01-06T13:28:13;101199.97;;;0.80;100.00
20043;BME280;10182;52.896;6.496;2024-01-06T13:33:15;101203.44;;;0.80;100.00
20043;BME280;10182;52.896;6.496;2024-01-06T13:38:17;101200.81;;;0.68;100.00
20043;BME280;10182;52.896;6.496;2024-01-06T13:43:20;101209.53;;;0.79;100.00
20043;BME280;10182;52.896;6.496;2024-01-06T13:48:22;101209.50;;;0.75;100.00
20043;BME280;10182;52.896;6.496;2024-01-06T13:53:24;101217.34;;;0.79;100.00
20043;BME280;10182;52.896;6.496;2024-01-06T13:58:27;101229.50;;;0.76;100.00
20043;BME280;10182;52.896;6.496;2024-01-06T14:03:29;101237.34;;;0.76;100.00
20043;BME280;10182;52.896;6.496;2024-01-06T14:08:30;101239.94;;;0.80;100.00
20043;BME280;10182;52.896;6.496;2024-01-06T14:13:34;101248.63;;;0.76;100.00
20043;BME280;10182;52.896;6.496;2024-01-06T14:18:41;101261.66;;;0.72;100.00
20043;BME280;10182;52.896;6.496;2024-01-06T14:23:43;101267.75;;;0.66;100.00
20043;BME280;10182;52.896;6.496;2024-01-06T14:28:46;101264.28;;;0.70;100.00
20043;BME280;10182;52.896;6.496;2024-01-06T14:33:48;101276.47;;;0.77;100.00
20043;BME280;10182;52.896;6.496;2024-01-06T14:38:49;101283.34;;;0.63;100.00
20043;BME280;10182;52.896;6.496;2024-01-06T14:43:54;101297.25;;;0.49;100.00
20043;BME280;10182;52.896;6.496;2024-01-06T14:48:55;101295.44;;;0.39;100.00
20043;BME280;10182;52.896;6.496;2024-01-06T14:53:57;101302.41;;;0.45;100.00
20043;BME280;10182;52.896;6.496;2024-01-06T14:59:00;101311.09;;;0.41;100.00
20043;BME280;10182;52.896;6.496;2024-01-06T15:04:02;101315.44;;;0.39;100.00
20043;BME280;10182;52.896;6.496;2024-01-06T15:09:04;101322.41;;;0.46;100.00
20043;BME280;10182;52.896;6.496;2024-01-06T15:14:07;101323.25;;;0.37;100.00
20043;BME280;10182;52.896;6.496;2024-01-06T15:19:09;101338.84;;;0.28;100.00
20043;BME280;10182;52.896;6.496;2024-01-06T15:24:12;101341.47;;;0.29;100.00
20043;BME280;10182;52.896;6.496;2024-01-06T15:29:15;101358.78;;;0.16;100.00
20043;BME280;10182;52.896;6.496;2024-01-06T15:34:17;101359.69;;;0.26;100.00
20043;BME280;10182;52.896;6.496;2024-01-06T15:39:18;101370.97;;;0.25;100.00
20043;BME280;10182;52.896;6.496;2024-01-06T15:44:22;101382.25;;;0.21;100.00
20043;BME280;10182;52.896;6.496;2024-01-06T15:49:23;101390.06;;;0.21;100.00
20043;BME280;10182;52.896;6.496;2024-01-06T15:54:27;101389.16;;;0.17;100.00
20043;BME280;10182;52.896;6.496;2024-01-06T15:59:31;101395.19;;;0.06;100.00
20043;BME280;10182;52.896;6.496;2024-01-06T16:04:32;101406.44;;;0.05;100.00
20043;BME280;10182;52.896;6.496;2024-01-06T16:09:34;101408.28;;;0.18;100.00
20043;BME280;10182;52.896;6.496;2024-01-06T16:14:37;101403.00;;;0.07;100.00
20043;BME280;10182;52.896;6.496;2024-01-06T16:19:39;101403.78;;;-0.02;100.00
20043;BME280;10182;52.896;6.496;2024-01-06T16:24:41;101405.50;;;-0.05;100.00
20043;BME280;10182;52.896;6.496;2024-01-06T16:29:44;101415.94;;;-0.01;100.00
20043;BME280;10182;52.896;6.496;2024-01-06T16:34:45;101426.34;;;-0.04;100.00
20043;BME280;10182;52.896;6.496;2024-01-06T16:39:47;101426.28;;;-0.11;100.00
20043;BME280;10182;52.896;6.496;2024-01-06T16:44:50;101432.41;;;-0.05;100.00
20043;BME280;10182;52.896;6.496;2024-01-06T16:49:52;101440.22;;;-0.05;100.00
20043;BME280;10182;52.896;6.496;2024-01-06T16:54:53;101442.84;;;-0.06;100.00
20043;BME280;10182;52.896;6.496;2024-01-06T16:59:56;101451.50;;;-0.07;100.00
20043;BME280;10182;52.896;6.496;2024-01-06T17:04:58;101452.41;;;-0.04;100.00
20043;BME280;10182;52.896;6.496;2024-01-06T17:10:00;101458.47;;;-0.06;100.00
20043;BME280;10182;52.896;6.496;2024-01-06T17:15:09;101461.88;;;-0.13;100.00
20043;BME280;10182;52.896;6.496;2024-01-06T17:20:11;101466.25;;;-0.08;100.00
20043;BME280;10182;52.896;6.496;2024-01-06T17:25:13;101477.53;;;-0.09;100.00
20043;BME280;10182;52.896;6.496;2024-01-06T17:30:16;101476.59;;;-0.15;100.00
20043;BME280;10182;52.896;6.496;2024-01-06T17:35:18;101489.66;;;-0.12;100.00
20043;BME280;10182;52.896;6.496;2024-01-06T17:40:20;101498.31;;;-0.15;100.00
20043;BME280;10182;52.896;6.496;2024-01-06T17:45:25;101501.72;;;-0.22;100.00
20043;BME280;10182;52.896;6.496;2024-01-06T17:50:26;101505.22;;;-0.20;100.00
20043;BME280;10182;52.896;6.496;2024-01-06T17:55:28;101515.63;;;-0.22;100.00
20043;BME280;10182;52.896;6.496;2024-01-06T18:00:33;101519.91;;;-0.28;100.00
20043;BME280;10182;52.896;6.496;2024-01-06T18:05:35;101531.16;;;-0.29;100.00
20043;BME280;10182;52.896;6.496;2024-01-06T18:10:50;101541.47;;;-0.37;100.00
20043;BME280;10182;52.896;6.496;2024-01-06T18:15:53;101546.66;;;-0.42;100.00
20043;BME280;10182;52.896;6.496;2024-01-06T18:20:57;101544.00;;;-0.45;100.00
20043;BME280;10182;52.896;6.496;2024-01-06T18:26:02;101549.22;;;-0.45;100.00
20043;BME280;10182;52.896;6.496;2024-01-06T18:31:05;101549.25;;;-0.40;100.00
20043;BME280;10182;52.896;6.496;2024-01-06T18:36:07;101550.94;;;-0.45;100.00
20043;BME280;10182;52.896;6.496;2024-01-06T18:41:14;101559.56;;;-0.48;100.00
20043;BME280;10182;52.896;6.496;2024-01-06T18:46:25;101553.50;;;-0.48;100.00
20043;BME280;10182;52.896;6.496;2024-01-06T18:51:27;101562.25;;;-0.42;100.00
20043;BME280;10182;52.896;6.496;2024-01-06T18:56:33;101567.34;;;-0.53;100.00
20043;BME280;10182;52.896;6.496;2024-01-06T19:01:37;101569.97;;;-0.51;100.00
20043;BME280;10182;52.896;6.496;2024-01-06T19:06:38;101570.75;;;-0.58;100.00
20043;BME280;10182;52.896;6.496;2024-01-06T19:11:40;101580.28;;;-0.59;100.00
20043;BME280;10182;52.896;6.496;2024-01-06T19:16:43;101587.31;;;-0.53;100.00
20043;BME280;10182;52.896;6.496;2024-01-06T19:21:46;101594.28;;;-0.50;100.00
20043;BME280;10182;52.896;6.496;2024-01-06T19:26:48;101595.19;;;-0.45;100.00
20043;BME280;10182;52.896;6.496;2024-01-06T19:31:57;101602.16;;;-0.43;100.00
20043;BME280;10182;52.896;6.496;2024-01-06T19:37:03;101608.19;;;-0.47;100.00
20043;BME280;10182;52.896;6.496;2024-01-06T19:42:08;101620.34;;;-0.46;100.00
20043;BME280;10182;52.896;6.496;2024-01-06T19:47:11;101616.84;;;-0.48;100.00
20043;BME280;10182;52.896;6.496;2024-01-06T19:52:13;101630.72;;;-0.49;100.00
20043;BME280;10182;52.896;6.496;2024-01-06T19:57:17;101635.03;;;-0.51;100.00
20043;BME280;10182;52.896;6.496;2024-01-06T20:02:22;101635.81;;;-0.58;100.00
20043;BME280;10182;52.896;6.496;2024-01-06T20:07:24;101638.44;;;-0.57;100.00
20043;BME280;10182;52.896;6.496;2024-01-06T20:12:32;101640.09;;;-0.60;100.00
20043;BME280;10182;52.896;6.496;2024-01-06T20:17:37;101641.84;;;-0.62;100.00
20043;BME280;10182;52.896;6.496;2024-01-06T20:22:39;101650.56;;;-0.59;100.00
20043;BME280;10182;52.896;6.496;2024-01-06T20:27:41;101650.59;;;-0.57;100.00
20043;BME280;10182;52.896;6.496;2024-01-06T20:32:46;101656.69;;;-0.52;100.00
20043;BME280;10182;52.896;6.496;2024-01-06T20:37:47;101658.38;;;-0.57;100.00
20043;BME280;10182;52.896;6.496;2024-01-06T20:42:50;101662.56;;;-0.67;100.00
20043;BME280;10182;52.896;6.496;2024-01-06T20:47:53;101660.13;;;-0.56;100.00
20043;BME280;10182;52.896;6.496;2024-01-06T20:52:55;101675.81;;;-0.53;100.00
20043;BME280;10182;52.896;6.496;2024-01-06T20:57:59;101686.13;;;-0.58;100.00
20043;BME280;10182;52.896;6.496;2024-01-06T21:03:04;101680.06;;;-0.58;100.00
20043;BME280;10182;52.896;6.496;2024-01-06T21:08:06;101678.25;;;-0.62;100.00
20043;BME280;10182;52.896;6.496;2024-01-06T21:13:08;101682.63;;;-0.61;100.00
20043;BME280;10182;52.896;6.496;2024-01-06T21:18:11;101691.34;;;-0.58;100.00
20043;BME280;10182;52.896;6.496;2024-01-06T21:23:20;101694.84;;;-0.57;100.00
20043;BME280;10182;52.896;6.496;2024-01-06T21:28:25;101691.25;;;-0.64;100.00
20043;BME280;10182;52.896;6.496;2024-01-06T21:33:28;101686.00;;;-0.67;100.00
20043;BME280;10182;52.896;6.496;2024-01-06T21:38:30;101691.16;;;-0.70;100.00
20043;BME280;10182;52.896;6.496;2024-01-06T21:43:33;101698.25;;;-0.61;100.00
20043;BME280;10182;52.896;6.496;2024-01-06T21:48:38;101703.31;;;-0.69;100.00
20043;BME280;10182;52.896;6.496;2024-01-06T21:53:40;101709.47;;;-0.65;100.00
20043;BME280;10182;52.896;6.496;2024-01-06T21:58:42;101717.97;;;-0.74;100.00
20043;BME280;10182;52.896;6.496;2024-01-06T22:03:45;101725.81;;;-0.73;100.00
20043;BME280;10182;52.896;6.496;2024-01-06T22:08:49;101734.50;;;-0.74;100.00
20043;BME280;10182;52.896;6.496;2024-01-06T22:13:51;101740.53;;;-0.76;100.00
20043;BME280;10182;52.896;6.496;2024-01-06T22:18:54;101744.84;;;-0.75;100.00
20043;BME280;10182;52.896;6.496;2024-01-06T22:23:56;101745.59;;;-0.82;100.00
20043;BME280;10182;52.896;6.496;2024-01-06T22:29:01;101752.72;;;-0.74;100.00
20043;BME280;10182;52.896;6.496;2024-01-06T22:34:04;101753.56;;;-0.73;100.00
20043;BME280;10182;52.896;6.496;2024-01-06T22:39:11;101768.31;;;-0.74;100.00
20043;BME280;10182;52.896;6.496;2024-01-06T22:44:15;101776.06;;;-0.75;100.00
20043;BME280;10182;52.896;6.496;2024-01-06T22:49:20;101776.00;;;-0.80;100.00
20043;BME280;10182;52.896;6.496;2024-01-06T22:54:23;101782.06;;;-0.79;100.00
20043;BME280;10182;52.896;6.496;2024-01-06T22:59:25;101788.19;;;-0.77;100.00
20043;BME280;10182;52.896;6.496;2024-01-06T23:04:28;101795.16;;;-0.76;100.00
20043;BME280;10182;52.896;6.496;2024-01-06T23:09:33;101799.50;;;-0.75;100.00
20043;BME280;10182;52.896;6.496;2024-01-06T23:14:40;101797.59;;;-0.86;100.00
20043;BME280;10182;52.896;6.496;2024-01-06T23:19:43;101809.91;;;-0.75;100.00
20043;BME280;10182;52.896;6.496;2024-01-06T23:24:51;101811.47;;;-0.85;100.00
20043;BME280;10182;52.896;6.496;2024-01-06T23:29:52;101818.50;;;-0.79;100.00
20043;BME280;10182;52.896;6.496;2024-01-06T23:34:55;101828.06;;;-0.80;100.00
20043;BME280;10182;52.896;6.496;2024-01-06T23:39:59;101837.78;;;-0.70;100.00
20043;BME280;10182;52.896;6.496;2024-01-06T23:45:00;101831.63;;;-0.75;100.00
20043;BME280;10182;52.896;6.496;2024-01-06T23:50:05;101841.97;;;-0.78;100.00
20043;BME280;10182;52.896;6.496;2024-01-06T23:55:08;101853.09;;;-0.85;100.00
